NCAR-RAP Real-Time Weather Data

Output produced by METARs form (26 February 2017  21:29 UTC)
found at http://weather.rap.ucar.edu/surface/
 
KDCA 262052Z 24007KT 10SM FEW060 09/M08 A3016 RMK AO2 SLP211 T00941083 53002
KDCA 261952Z 28015G19KT 10SM SCT055 09/M08 A3015 RMK AO2 SLP210 T00891083
KDCA 261852Z 24012KT 10SM SCT055 08/M08 A3014 RMK AO2 SLP206 T00831078
KDCA 261752Z 31008G17KT 10SM FEW055 07/M08 A3015 RMK AO2 SLP209 T00721078 10078 20017 58002
KDCA 261652Z 30009KT 270V340 10SM SCT055 06/M08 A3016 RMK AO2 SLP214 T00561083
KDCA 261552Z 32013KT 10SM SCT055 06/M07 A3016 RMK AO2 SLP213 T00611072
KDCA 261452Z 32014G22KT 10SM SCT050 04/M08 A3016 RMK AO2 SLP211 T00441083 51028
KDCA 261352Z 33014G23KT 10SM SCT050 03/M09 A3014 RMK AO2 SLP206 T00331089
KDCA 261252Z 30010G21KT 10SM SCT050 03/M09 A3011 RMK AO2 SLP194 T00281089
KDCA 261152Z 33010G17KT 10SM SCT049 02/M09 A3007 RMK AO2 PK WND 33026/1122 SLP183 70018 T00221089 10067 20017 53035
KDCA 261052Z 29015G24KT 10SM SCT047 03/M08 A3004 RMK AO2 SLP170 T00281083
KDCA 260952Z 31008KT 10SM SCT047 03/M08 A3000 RMK AO2 SLP157 T00281078
KDCA 260852Z 33018KT 10SM BKN047 04/M07 A2997 RMK AO2 SLP148 T00391067 51025
KDCA 260752Z 32011G17KT 10SM BKN050 04/M06 A2995 RMK AO2 SLP142 T00441061
KDCA 260652Z 30013G22KT 10SM OVC050 06/M05 A2992
KDCA 260552Z 30016G24KT 10SM BKN055 07/M05 A2989 RMK AO2 SLP123 T00671050 10128 20067 51040
KDCA 260452Z 30012G24KT 10SM FEW050 FEW130 07/M06 A2986 RMK AO2 PK WND 32030/0355 SLP111 T00671056 402390067
KDCA 260352Z 31020G30KT 10SM FEW050 FEW130 08/M05 A2983 RMK AO2 PK WND 33030/0349 SLP099 T00781050
KDCA 260252Z 32017G27KT 10SM SCT130 09/M04 A2978 RMK AO2 PK WND 32028/0231 PRESRR SLP083 T00941044 53049
KDCA 260152Z 31018G31KT 10SM FEW095 SCT120 11/M02 A2971 RMK AO2 PK WND 33031/0143 SLP061 T01111017
KDCA 260052Z 31012KT 10SM FEW095 SCT110 13/M01 A2966 RMK AO2 SLP044 T01281006
KDCA 252352Z 32009KT 10SM SCT095 BKN110 13/03 A2963 RMK AO2 SLP034 60018 T01280033 10239 20122 53018
KDCA 252252Z 32013G25KT 10SM SCT065 BKN100 13/04 A2960 RMK AO2 PK WND 32027/2218 SLP024 CB DSNT NE-SE MOV NE T01330044
KDCA 252222Z 32014G27KT 10SM SCT065 14/06 A2959 RMK AO2 PK WND 32027/2218 LTG DSNT E-S CB DSNT E-SE MOV NE T01390061
KDCA 252201Z 33016G22KT 10SM VCTS BKN060 14/07 A2959 RMK AO2 LTG DSNT E-S CB DSNT E-SE MOV NE T01390072
KDCA 252152Z 32013G20KT 10SM FEW038 OVC055 14/07 A2959 RMK AO2 LTG DSNT NE-S TSE14 PRESRR SLP019 BINOVC T01390072
KDCA 252147Z 33009G18KT 10SM FEW038 OVC055 14/07 A2958 RMK AO2 LTG DSNT NE-S TSE14 PRESRR BINOVC
KDCA 252115Z 31014G19KT 10SM VCTS BKN038 BKN046 OVC060 13/08 A2953 RMK AO2 LTG DSNT ALQDS TSE14 BINOVC T01330083
KDCA 252052Z 33013G24KT 10SM TS BKN035 BKN043 OVC075 13/10 A2952 RMK AO2 PK WND 23040/2017 WSHFT 2008 LTG DSNT N AND S AND SW RAB1956E34 SLP997 BINOVC P0011 60018 T01330100 53003
KDCA 252030Z 31018G31KT 7SM R01/5000VP6000FT -TSRA SCT031CB BKN039 OVC048 14/11 A2950 RMK AO2 PK WND 23040/2017 WSHFT 2008 LTG DSNT ALQDS RAB1956 CB VC NE-SW MOV NE BINOVC P0011 T01390111
KDCA 252024Z 31020G40KT 3SM R01/5000VP6000FT +TSRA BR SCT031 BKN039CB OVC048 15/13 A2951 RMK AO2 PK WND 23040/2017 WSHFT 2008 LTG DSNT SW-N RAB1956 PRESRR OCNL LTGICCCCG NE-SE TS NE-SE MOV NE P0008 T01500128
KDCA 252022Z 30022G40KT 1 3/4SM R01/5000VP6000FT +TSRA BKN042CB BKN050 OVC060 17/14 A2951 RMK AO2 PK WND 23040/2017 WSHFT 2008 VIS 3/4V4 LTG DSNT SW-N RAB1956 PRESRR OCNL LTGICCCCG ALQDS TS ALQDS MOV NE P0006 T01670139
KDCA 252019Z 28023G40KT 240V320 2SM TSRA BKN042CB BKN050 OVC060 18/16 A2950 RMK AO2 PK WND 23040/2017 VIS 1 1/2V4 LTG DSNT SW-N RAB1956 PRESRR OCNL LTGICCCCG ALQDS TS ALQDS MOV NE P0006 T01830156
KDCA 252013Z 21016G20KT 3SM +TSRA BKN046CB BKN060 18/16 A2946 RMK AO2 LTG DSNT SW-N RAB1956 PRESRR OCNL LTGICCCCG ALQDS TS ALQDS MOV NE P0001 T01830156
KDCA 251952Z 22011KT 8SM TS BKN048CB BKN075 BKN100 21/16 A2944 RMK AO2 LTG DSNT W AND NW RAB1857E52 TSB51 SLP967 OCNL LTGIC OHD TS OHD MOV NE P0007 T02060156
KDCA 251939Z 21014KT 7SM R01/4500VP6000FT -RA BKN049 BKN065 OVC080 21/15 A2943 RMK AO2 LTG DSNT NW RAB1857 VIS NE 2 1/2 P0001 T02110150
KDCA 251918Z 19016G22KT 8SM -RA FEW046 BKN060 BKN080 BKN250 22/15 A2943 RMK AO2 LTG DSNT N AND NW RAB1857 P0000 T02220150
KDCA 251852Z 18014KT 10SM SCT046TCU SCT055 BKN080 BKN250 23/14 A2946 RMK AO2 RAB39E50 PRESFR SLP975 TCU N-NE P0000 T02280139
KDCA 251752Z 18015KT 10SM SCT045TCU BKN070 BKN090 BKN250 21/14 A2951 RMK AO2 PRESFR SLP993 TCU SW T02110139 10239 20150 58045
KDCA 251652Z 19015G23KT 10SM FEW043 BKN060 BKN095 BKN250 24/15 A2958 RMK AO2 SLP015 T02390150
KDCA 251552Z 20017G23KT 10SM SCT029 SCT100 BKN250 22/15 A2962 RMK AO2 SLP030 T02170150
KDCA 251452Z 18010KT 10SM FEW023 SCT120 BKN230 19/14 A2964 RMK AO2 SLP038 T01890144 58016
KDCA 251352Z 18011KT 10SM FEW030 FEW120 BKN250 17/14 A2967 RMK AO2 SLP045 T01720144
KDCA 251252Z 18011KT 10SM FEW020 BKN250 17/14 A2968 RMK AO2 SLP051 T01670144
KDCA 251152Z 19012KT 10SM FEW015 FEW140 SCT250 15/14 A2969 RMK AO2 SLP054 T01500139 10161 20139 58015 $
KDCA 251052Z 18009KT 10SM BKN250 14/13 A2972 RMK AO2 SLP062 T01440133 $
KDCA 250952Z 20007KT 10SM FEW015 FEW250 14/13 A2973 RMK AO2 SLP068 T01440133 $
KDCA 250852Z 18012KT 10SM FEW015 16/14 A2974 RMK AO2 SLP069 T01610144 58014 $
KDCA 250752Z 18010KT 10SM SCT250 15/14 A2974 RMK AO2 SLP071 T01500139 $
KDCA 250652Z 18010KT 10SM BKN250 15/14 A2978 RMK AO2 SLP082 T01500139 $
KDCA 250552Z 19011KT 10SM BKN250 16/14 A2978 RMK AO2 SLP082 T01610144 10200 20156 56008 $
KDCA 250452Z 19010KT 10SM BKN250 17/15 A2979 RMK AO2 SLP086 T01670150 402500122 $
KDCA 250352Z 19009KT 10SM BKN250 16/14 A2979 RMK AO2 SLP086 T01610144 $
KDCA 250252Z 18008KT 10SM BKN250 16/14 A2980 RMK AO2 SLP091 T01610144 58003 $
KDCA 250152Z 18009KT 10SM BKN250 17/14 A2981 RMK AO2 SLP093 T01670139 $
KDCA 250052Z 16009KT 10SM FEW080 SCT250 18/13 A2980 RMK AO2 SLP092 T01780133 $
KDCA 242352Z 15013KT 10SM FEW070 SCT250 20/13 A2981 RMK AO2 SLP094 T02000133 10250 20178 55005 $
KDCA 242252Z 17010KT 10SM FEW060 SCT250 19/12 A2981 RMK AO2 SLP093 T01940117
KDCA 242152Z 18012KT 10SM FEW055 BKN250 21/12 A2981 RMK AO2 SLP093 T02060117
KDCA 242052Z 18011KT 10SM SCT055 BKN250 23/12 A2982 RMK AO2 SLP099 T02280122 56012
KDCA 241952Z 18013KT 10SM FEW050 BKN250 22/12 A2983 RMK AO2 SLP101 T02220122
KDCA 241852Z 17012KT 10SM BKN045 BKN250 23/13 A2985 RMK AO2 SLP106 T02330128
KDCA 241752Z 20014KT 10SM SCT030 BKN250 24/12 A2986 RMK AO2 SLP110 T02440122 10244 20122 58025
KDCA 241652Z 18013KT 10SM SCT030 BKN250 23/13 A2990 RMK AO2 SLP123 T02330133
KDCA 241552Z 17012KT 10SM FEW030 SCT250 21/13 A2992 RMK AO2 SLP130 T02060133
KDCA 241452Z 17009KT 10SM SCT250 18/13 A2993 RMK AO2 SLP135 T01780133 50005
KDCA 241352Z 17006KT 10SM SCT060 SCT250 16/13 A2994 RMK AO2 SLP136 T01560133
KDCA 241252Z 19006KT 10SM SCT055 SCT250 14/13 A2993 RMK AO2 SLP133 T01390128
KDCA 241152Z 19007KT 10SM SCT140 BKN250 12/12 A2992 RMK AO2 SLP130 T01220117 10161 20122 52004
KDCA 241111Z 19007KT 10SM FEW250 12/11 A2992 RMK AO2 T01220111
KDCA 241052Z 20005KT 10SM CLR 12/12 A2992 RMK AO2 SLP130 T01220117
KDCA 240952Z 19003KT 10SM CLR 14/12 A2991 RMK AO2 SLP127 T01440117